createdAt,value
2023-04-15T00:04:58.730Z,100905.16
2023-04-15T00:10:02.484Z,100886.97
2023-04-15T00:15:07.018Z,100926.88
2023-04-15T00:20:10.735Z,100900.84
2023-04-15T00:25:13.904Z,100927.81
2023-04-15T00:30:18.877Z,100976.59
2023-04-15T00:35:22.120Z,100957.56
2023-04-15T00:40:26.842Z,100988.88
2023-04-15T00:45:30.527Z,101001.09
2023-04-15T00:50:33.933Z,100994.16
2023-04-15T00:55:38.362Z,101022.81
2023-04-15T01:00:42.307Z,101025.44
2023-04-15T01:05:46.392Z,101044.59
2023-04-15T01:10:49.447Z,101029.81
2023-04-15T01:15:53.308Z,101034.19
2023-04-15T01:20:56.795Z,101068.94
2023-04-15T01:26:02.928Z,101081.13
2023-04-15T01:31:11.074Z,101075.06
2023-04-15T01:36:14.676Z,101062.03
2023-04-15T01:41:17.637Z,101099.41
2023-04-15T01:46:22.377Z,101125.50
2023-04-15T01:51:27.622Z,101113.31
2023-04-15T01:56:31.844Z,101135.06
2023-04-15T02:01:36.145Z,101132.47
2023-04-15T02:06:40.588Z,101149.00
2023-04-15T02:11:45.282Z,101163.78
2023-04-15T02:16:49.549Z,101154.25
2023-04-15T02:21:53.746Z,101202.06
2023-04-15T02:26:57.943Z,101198.56
2023-04-15T02:32:02.239Z,101227.28
2023-04-15T02:37:07.085Z,101246.44
2023-04-15T02:42:13.770Z,101238.63
2023-04-15T02:47:18.066Z,101268.19
2023-04-15T02:52:22.282Z,101267.34
2023-04-15T02:57:32.407Z,101283.81
2023-04-15T03:02:43.362Z,101285.53
2023-04-15T03:07:47.913Z,101305.59
2023-04-15T03:12:52.427Z,101322.13
2023-04-15T03:17:58.960Z,101351.75
2023-04-15T03:23:03.253Z,101342.16
2023-04-15T03:28:07.592Z,101369.16
2023-04-15T03:33:11.804Z,101386.63
2023-04-15T03:38:16.701Z,101397.94
2023-04-15T03:43:21.611Z,101403.16
2023-04-15T03:48:25.851Z,101400.53
2023-04-15T03:53:30.047Z,101395.34
2023-04-15T03:58:34.218Z,101380.50
2023-04-15T04:03:38.451Z,101414.47
2023-04-15T04:08:42.939Z,101417.97
2023-04-15T04:13:47.057Z,101426.66
2023-04-15T04:18:51.300Z,101410.09
2023-04-15T04:23:57.055Z,101447.59
2023-04-15T04:29:01.531Z,101426.69
2023-04-15T04:34:06.448Z,101458.94
2023-04-15T04:39:10.614Z,101465.91
2023-04-15T04:44:14.818Z,101436.28
2023-04-15T04:49:19.037Z,101484.25
2023-04-15T04:54:23.965Z,101433.66
2023-04-15T04:59:28.589Z,101458.06
2023-04-15T05:04:32.824Z,101498.16
2023-04-15T05:09:37.175Z,101480.72
2023-04-15T05:14:44.447Z,101506.00
2023-04-15T05:19:48.784Z,101517.38
2023-04-15T05:24:52.969Z,101527.78
2023-04-15T05:29:57.289Z,101539.09
2023-04-15T05:35:01.892Z,101541.66
2023-04-15T05:40:06.649Z,101527.72
2023-04-15T05:45:11.339Z,101564.41
2023-04-15T05:50:16.046Z,101565.00
2023-04-15T05:55:20.258Z,101542.47
2023-04-15T06:00:24.430Z,101580.50
2023-04-15T06:05:28.614Z,101583.56
2023-04-15T06:10:36.871Z,101602.34
2023-04-15T06:15:41.560Z,101598.22
2023-04-15T06:20:46.186Z,101602.53
2023-04-15T06:25:50.429Z,101617.00
2023-04-15T06:30:55.271Z,101646.94
2023-04-15T06:35:59.413Z,101636.59
2023-04-15T06:41:04.672Z,101654.88
2023-04-15T06:46:08.949Z,101645.41
2023-04-15T06:51:13.277Z,101652.00
2023-04-15T06:56:17.481Z,101670.25
2023-04-15T07:01:21.731Z,101684.84
2023-04-15T07:06:26.360Z,101680.53
2023-04-15T07:11:30.828Z,101698.63
2023-04-15T07:16:35.087Z,101700.81
2023-04-15T07:21:41.687Z,101697.69
2023-04-15T07:26:46.222Z,101720.88
2023-04-15T07:31:50.403Z,101711.63
2023-04-15T07:36:54.722Z,101701.66
2023-04-15T07:41:59.423Z,101714.22
2023-04-15T07:47:04.555Z,101707.53
2023-04-15T07:52:08.884Z,101745.66
2023-04-15T07:57:13.426Z,101702.22
2023-04-15T08:02:17.746Z,101709.56
2023-04-15T08:07:21.972Z,101734.84
2023-04-15T08:12:26.204Z,101760.56
2023-04-15T08:17:30.441Z,101749.00
2023-04-15T08:22:34.871Z,101771.25
2023-04-15T08:27:39.076Z,101757.59
2023-04-15T08:32:49.577Z,101751.66
2023-04-15T08:37:53.730Z,101753.34
2023-04-15T08:42:59.465Z,101767.03
2023-04-15T08:48:06.118Z,101753.13
2023-04-15T08:53:12.071Z,101757.16
2023-04-15T08:58:16.661Z,101765.09
2023-04-15T09:03:23.249Z,101772.34
2023-04-15T09:08:27.532Z,101795.13
2023-04-15T09:13:32.060Z,101794.78
2023-04-15T09:18:39.304Z,101784.81
2023-04-15T09:24:01.555Z,101781.03
2023-04-15T09:29:10.899Z,101815.97
2023-04-15T09:34:15.097Z,101782.63
2023-04-15T09:39:19.312Z,101801.78
2023-04-15T09:44:24.738Z,101799.50
2023-04-15T09:49:29.189Z,101828.97
2023-04-15T09:54:35.413Z,101839.56
2023-04-15T09:59:40.145Z,101841.88
2023-04-15T10:04:45.862Z,101868.47
2023-04-15T10:09:53.767Z,101845.22
2023-04-15T10:15:05.134Z,101870.72
2023-04-15T10:20:10.985Z,101864.22
2023-04-15T10:25:16.071Z,101858.66
2023-04-15T10:30:21.195Z,101865.06
2023-04-15T10:35:25.840Z,101890.09
2023-04-15T10:40:33.494Z,101887.59
2023-04-15T10:45:38.422Z,101884.31
2023-04-15T10:50:57.406Z,101903.38
2023-04-15T10:56:01.741Z,101892.34
2023-04-15T11:01:06.044Z,101951.25
2023-04-15T11:06:10.320Z,101917.38
2023-04-15T11:11:14.587Z,101912.47
2023-04-15T11:16:19.032Z,101934.31
2023-04-15T11:21:26.629Z,101940.25
2023-04-15T11:26:33.652Z,101921.44
2023-04-15T11:31:38.006Z,101944.63
2023-04-15T11:36:43.978Z,101953.47
2023-04-15T11:41:48.163Z,101956.88
2023-04-15T11:46:52.342Z,101947.13
2023-04-15T11:51:56.699Z,101978.06
2023-04-15T11:57:00.505Z,101953.38
2023-04-15T12:02:13.235Z,101966.19
2023-04-15T12:07:16.949Z,101953.97
2023-04-15T12:12:19.973Z,101983.22
2023-04-15T12:17:24.547Z,101972.59
2023-04-15T12:22:27.598Z,101998.88
2023-04-15T12:27:32.716Z,102007.03
2023-04-15T12:32:36.816Z,102022.69
2023-04-15T12:37:39.907Z,102024.41
2023-04-15T12:42:42.845Z,102026.00
2023-04-15T12:47:45.797Z,102026.16
2023-04-15T12:52:48.781Z,102018.50
2023-04-15T12:57:51.849Z,102039.56
2023-04-15T13:02:55.051Z,102039.63
2023-04-15T13:07:58.066Z,102032.59
2023-04-15T13:13:01.076Z,102056.16
2023-04-15T13:18:06.803Z,102043.28
2023-04-15T13:23:10.168Z,102061.75
2023-04-15T13:28:13.113Z,102067.88
2023-04-15T13:33:17.969Z,102049.47
2023-04-15T13:38:21.061Z,102080.19
2023-04-15T13:43:24.050Z,102075.81
2023-04-15T13:48:26.962Z,102060.06
2023-04-15T13:53:38.513Z,102062.75
2023-04-15T13:58:42.766Z,102069.75
2023-04-15T14:03:46.021Z,102091.63
2023-04-15T14:08:49.148Z,102104.78
2023-04-15T14:13:52.122Z,102125.03
2023-04-15T14:18:55.103Z,102102.25
2023-04-15T14:23:58.166Z,102096.16
2023-04-15T14:29:01.555Z,102123.34
2023-04-15T14:34:04.567Z,102130.34
2023-04-15T14:39:08.878Z,102125.19
2023-04-15T14:44:12.176Z,102137.47
2023-04-15T14:49:15.164Z,102137.53
2023-04-15T14:54:18.517Z,102163.91
2023-04-15T14:59:22.090Z,102172.66
2023-04-15T15:04:25.200Z,102166.53
2023-04-15T15:09:29.433Z,102157.78
2023-04-15T15:14:32.354Z,102164.84
2023-04-15T15:19:35.453Z,102169.25
2023-04-15T15:24:38.516Z,102184.13
2023-04-15T15:29:41.469Z,102197.28
2023-04-15T15:34:44.458Z,102183.28
2023-04-15T15:39:47.455Z,102192.03
2023-04-15T15:44:50.572Z,102208.63
2023-04-15T15:49:54.727Z,102210.41
2023-04-15T15:54:57.705Z,102223.50
2023-04-15T16:00:11.118Z,102248.88
2023-04-15T16:05:16.161Z,102233.09
2023-04-15T16:10:19.208Z,102251.47
2023-04-15T16:15:26.764Z,102246.16
2023-04-15T16:20:29.726Z,102284.72
2023-04-15T16:25:32.561Z,102293.41
2023-04-15T16:30:37.305Z,102304.75
2023-04-15T16:35:40.263Z,102296.75
2023-04-15T16:40:43.173Z,102324.72
2023-04-15T16:45:51.552Z,102335.19
2023-04-15T16:50:54.881Z,102337.75
2023-04-15T16:55:57.900Z,102339.44
2023-04-15T17:01:01.530Z,102357.69
2023-04-15T17:06:04.756Z,102371.56
2023-04-15T17:11:07.902Z,102382.91
2023-04-15T17:16:11.269Z,102383.59
2023-04-15T17:21:21.827Z,102395.72
2023-04-15T17:26:32.822Z,102394.66
2023-04-15T17:31:40.086Z,102399.94
2023-04-15T17:37:03.124Z,102408.53
2023-04-15T17:42:26.686Z,102418.91
2023-04-15T17:47:49.757Z,102401.97
2023-04-15T17:53:12.756Z,102432.63
2023-04-15T17:58:35.634Z,102407.97
2023-04-15T18:03:58.592Z,102420.91
2023-04-15T18:09:22.102Z,102441.91
2023-04-15T18:14:45.037Z,102445.34
2023-04-15T18:20:08.279Z,102444.34
2023-04-15T18:25:14.155Z,102454.75
2023-04-15T18:30:17.501Z,102445.84
2023-04-15T18:35:21.080Z,102445.66
2023-04-15T18:40:24.114Z,102455.06
2023-04-15T18:45:27.302Z,102485.63
2023-04-15T18:50:30.447Z,102478.34
2023-04-15T18:55:33.487Z,102483.25
2023-04-15T19:00:40.915Z,102501.59
2023-04-15T19:05:44.237Z,102506.50
2023-04-15T19:10:47.354Z,102502.00
2023-04-15T19:15:50.319Z,102523.75
2023-04-15T19:20:56.218Z,102511.28
2023-04-15T19:25:59.274Z,102522.34
2023-04-15T19:31:02.303Z,102522.31
2023-04-15T19:36:06.821Z,102544.22
2023-04-15T19:41:11.267Z,102551.00
2023-04-15T19:46:14.199Z,102530.84
2023-04-15T19:51:17.243Z,102537.53
2023-04-15T19:56:21.041Z,102566.28
2023-04-15T20:01:24.172Z,102555.47
2023-04-15T20:06:27.834Z,102555.88
2023-04-15T20:12:47.010Z,102586.53
2023-04-15T20:16:53.874Z,102591.53
2023-04-15T20:21:56.805Z,102555.25
2023-04-15T20:26:59.755Z,102597.25
2023-04-15T20:32:02.845Z,102585.47
2023-04-15T20:37:06.087Z,102614.25
2023-04-15T20:42:12.109Z,102604.25
2023-04-15T20:47:15.084Z,102603.25
2023-04-15T20:52:18.221Z,102630.41
2023-04-15T20:57:21.347Z,102616.13
2023-04-15T21:02:24.772Z,102617.59
2023-04-15T21:07:27.934Z,102629.81
2023-04-15T21:12:31.342Z,102635.84
2023-04-15T21:17:35.677Z,102599.47
2023-04-15T21:22:38.631Z,102632.09
2023-04-15T21:27:41.749Z,102647.50
2023-04-15T21:32:44.771Z,102638.84
2023-04-15T21:37:47.750Z,102654.69
2023-04-15T21:42:50.904Z,102637.63
2023-04-15T21:48:05.535Z,102664.56
2023-04-15T21:53:10.694Z,102665.97
2023-04-15T21:58:13.625Z,102657.97
2023-04-15T22:03:16.702Z,102653.41
2023-04-15T22:08:19.685Z,102663.03
2023-04-15T22:13:22.627Z,102690.13
2023-04-15T22:18:25.748Z,102692.72
2023-04-15T22:23:28.672Z,102680.81
2023-04-15T22:28:31.625Z,102665.56
2023-04-15T22:33:34.803Z,102696.53
2023-04-15T22:38:37.893Z,102687.97
2023-04-15T22:43:40.776Z,102704.47
2023-04-15T22:48:43.818Z,102680.47
2023-04-15T22:53:46.751Z,102713.66
2023-04-15T22:58:50.679Z,102695.41
2023-04-15T23:03:56.930Z,102704.34
2023-04-15T23:09:07.394Z,102724.91
2023-04-15T23:14:10.657Z,102703.81
2023-04-15T23:19:13.644Z,102736.94
2023-04-15T23:24:17.136Z,102737.84
2023-04-15T23:29:20.045Z,102748.03
2023-04-15T23:34:23.095Z,102723.13
2023-04-15T23:39:26.195Z,102750.41
2023-04-15T23:44:29.121Z,102740.19
2023-04-15T23:49:32.034Z,102736.59
2023-04-15T23:54:35.162Z,102746.41
2023-04-15T23:59:38.130Z,102759.59
